Ciudad Guayana, Venezuela
Current Conditions -  °F | °C
As of 3:00 AM on Wednesday 26 Nov 2014 (Local Time) from TTPP Reporting Station
Broken Clouds Broken Clouds  
Wind Chill: 25°   Ceiling: 3600
Heat Index: 26°   Visibility: 6mi
Dew Point: 23°   Wind: 0mph
Humidity: 89%   Direction: NA
Pressure: 29.8"   Gusts: NA
Location:  8.37°N, 62.62°W
Report Text: TTPP 260700Z 00000KT 9999 SCT014 BKN036 25/23 Q1009 NOSIG
Loading
Personal Weather Stations






























Interactive Weather Map New forecast layout! Learn more

10-Day Weather Forecast

Advertisements
Track Severe Weather on mobile